Time;durP1;ratioP1;P1;durP2;ratioP2;P2;SDS_P1;SDS_P2;PMS_P1;PMS_P2;Temp;Humidity;BMP_temperature;BMP_pressure;BME280_temperature;BME280_humidity;BME280_pressure;Samples;Min_cycle;Max_cycle;Signal;HPM_P1;HPM_P2
2023/08/21 00:01:25;;;;;;;;;;;15.70;99.90;;;;;;5095158;28;19934;-61
2023/08/21 00:03:52;;;;;;;;;;;15.60;99.90;;;;;;5113074;28;20432;-62
2023/08/21 00:06:19;;;;;;;;;;;15.60;99.90;;;;;;5092410;28;19923;-63
2023/08/21 00:08:46;;;;;;;;;;;15.50;99.90;;;;;;5112810;28;19932;-63
2023/08/21 00:11:13;;;;;;;;;;;15.40;99.90;;;;;;5095177;28;20368;-63
2023/08/21 00:13:39;;;;;;;;;;;15.40;99.90;;;;;;5112577;28;19953;-64
2023/08/21 00:16:06;;;;;;;;;;;15.40;99.90;;;;;;5094991;28;19924;-62
2023/08/21 00:18:34;;;;;;;;;;;15.30;99.90;;;;;;5094429;28;19964;-63
2023/08/21 00:21:01;;;;;;;;;;;15.30;99.90;;;;;;5112625;28;19938;-62
2023/08/21 00:23:28;;;;;;;;;;;15.30;99.90;;;;;;5094539;28;19928;-62
2023/08/21 00:25:54;;;;;;;;;;;15.30;99.90;;;;;;5112345;28;20284;-64
2023/08/21 00:28:21;;;;;;;;;;;15.30;99.90;;;;;;5094348;28;19924;-64
2023/08/21 00:30:48;;;;;;;;;;;15.30;99.90;;;;;;5112723;28;19924;-62
2023/08/21 00:33:15;;;;;;;;;;;15.30;99.90;;;;;;5094087;28;20398;-63
2023/08/21 00:35:44;;;;;;;;;;;15.20;99.90;;;;;;5094231;28;19954;-62
2023/08/21 00:38:10;;;;;;;;;;;15.20;99.90;;;;;;5093765;28;19924;-62
2023/08/21 00:40:37;;;;;;;;;;;15.10;99.90;;;;;;5094003;28;19931;-63
2023/08/21 00:43:04;;;;;;;;;;;15.20;99.90;;;;;;5112525;28;19924;-62
2023/08/21 00:45:31;;;;;;;;;;;15.20;99.90;;;;;;5112311;28;20395;-63
2023/08/21 00:47:58;;;;;;;;;;;15.10;99.90;;;;;;5111678;28;19924;-63
2023/08/21 00:50:25;;;;;;;;;;;15.10;99.90;;;;;;5112265;28;19927;-63
2023/08/21 00:52:53;;;;;;;;;;;15.10;99.90;;;;;;5094113;28;20376;-64
2023/08/21 00:55:20;;;;;;;;;;;15.00;99.90;;;;;;5093831;28;19924;-63
2023/08/21 00:57:47;;;;;;;;;;;15.00;99.90;;;;;;5111811;28;19931;-63
2023/08/21 01:00:14;;;;;;;;;;;14.80;99.90;;;;;;5112440;28;19928;-63
2023/08/21 01:02:41;;;;;;;;;;;15.00;99.90;;;;;;5093141;28;19941;-62
2023/08/21 01:05:09;;;;;;;;;;;14.90;99.90;;;;;;5094312;28;19984;-63
2023/08/21 01:07:37;;;;;;;;;;;14.90;99.90;;;;;;5112500;28;19924;-63
2023/08/21 01:10:10;;;;;;;;;;;14.90;99.90;;;;;;5111508;28;19955;-63
2023/08/21 01:12:39;;;;;;;;;;;14.80;99.90;;;;;;5093726;28;19936;-62
2023/08/21 01:15:07;;;;;;;;;;;14.80;99.90;;;;;;5111509;28;19930;-63
2023/08/21 01:17:34;;;;;;;;;;;14.70;99.90;;;;;;5110160;28;19928;-63
2023/08/21 01:20:02;;;;;;;;;;;14.70;99.90;;;;;;5112502;28;19932;-64
2023/08/21 01:22:36;;;;;;;;;;;14.70;99.90;;;;;;5093543;28;19924;-64
2023/08/21 01:25:05;;;;;;;;;;;14.70;99.90;;;;;;5112264;28;19924;-64
2023/08/21 01:27:32;;;;;;;;;;;14.80;99.90;;;;;;5093982;28;19930;-62
2023/08/21 01:29:59;;;;;;;;;;;14.70;99.90;;;;;;5111135;28;20411;-64
2023/08/21 01:32:28;;;;;;;;;;;14.70;99.90;;;;;;5094037;28;19973;-62
2023/08/21 01:34:56;;;;;;;;;;;14.80;99.90;;;;;;5093836;28;20507;-63
2023/08/21 01:37:23;;;;;;;;;;;14.70;99.90;;;;;;5111157;28;19924;-63
2023/08/21 01:39:50;;;;;;;;;;;14.60;99.90;;;;;;5092166;28;20287;-63
2023/08/21 01:42:18;;;;;;;;;;;14.60;99.90;;;;;;5111672;28;19930;-63
2023/08/21 01:44:45;;;;;;;;;;;14.60;99.90;;;;;;5093474;28;19977;-64
2023/08/21 01:47:12;;;;;;;;;;;14.60;99.90;;;;;;5093901;28;19931;-61
2023/08/21 01:49:39;;;;;;;;;;;14.60;99.90;;;;;;5097271;28;19924;-62
2023/08/21 01:52:06;;;;;;;;;;;14.50;99.90;;;;;;5115320;28;19927;-62
2023/08/21 01:54:32;;;;;;;;;;;14.50;99.90;;;;;;5115625;28;20883;-63
2023/08/21 01:56:59;;;;;;;;;;;14.50;99.90;;;;;;5097457;28;19961;-62
2023/08/21 01:59:27;;;;;;;;;;;14.50;99.90;;;;;;5115395;28;20013;-62
2023/08/21 02:01:54;;;;;;;;;;;14.50;99.90;;;;;;5097599;28;19931;-62
2023/08/21 02:04:21;;;;;;;;;;;14.50;99.90;;;;;;5114732;28;20407;-62
2023/08/21 02:06:47;;;;;;;;;;;14.50;99.90;;;;;;5115685;28;19924;-62
2023/08/21 02:09:14;;;;;;;;;;;14.40;99.90;;;;;;5115201;28;19936;-62
2023/08/21 02:11:41;;;;;;;;;;;14.40;99.90;;;;;;5115054;28;20403;-63
2023/08/21 02:14:08;;;;;;;;;;;14.50;99.90;;;;;;5115400;28;19924;-63
2023/08/21 02:16:36;;;;;;;;;;;14.40;99.90;;;;;;5115667;28;19924;-62
2023/08/21 02:19:02;;;;;;;;;;;14.40;99.90;;;;;;5114609;28;19931;-62
2023/08/21 02:21:29;;;;;;;;;;;14.40;99.90;;;;;;5115494;28;19928;-62
2023/08/21 02:23:56;;;;;;;;;;;14.40;99.90;;;;;;5115156;28;19953;-63
2023/08/21 02:26:22;;;;;;;;;;;14.40;99.90;;;;;;5096467;28;19973;-64
2023/08/21 02:28:49;;;;;;;;;;;14.40;99.90;;;;;;5097048;28;20303;-63
2023/08/21 02:31:16;;;;;;;;;;;14.40;99.90;;;;;;5115051;28;19923;-63
2023/08/21 02:33:44;;;;;;;;;;;14.40;99.90;;;;;;5096217;28;19927;-62
2023/08/21 02:36:11;;;;;;;;;;;14.40;99.90;;;;;;5114991;28;19928;-62
2023/08/21 02:38:37;;;;;;;;;;;14.40;99.90;;;;;;5096641;28;19927;-62
2023/08/21 02:41:04;;;;;;;;;;;14.40;99.90;;;;;;5130280;27;19931;-61
2023/08/21 02:43:31;;;;;;;;;;;14.30;99.90;;;;;;5096794;28;19924;-62
2023/08/21 02:45:58;;;;;;;;;;;14.30;99.90;;;;;;5114832;28;19932;-61
2023/08/21 02:48:24;;;;;;;;;;;14.30;99.90;;;;;;5095795;28;19928;-63
2023/08/21 02:50:53;;;;;;;;;;;14.30;99.90;;;;;;5114448;28;20011;-63
2023/08/21 02:53:20;;;;;;;;;;;14.30;99.90;;;;;;5114211;28;19927;-64
2023/08/21 02:55:47;;;;;;;;;;;14.20;99.90;;;;;;5112724;28;19963;-63
2023/08/21 02:58:13;;;;;;;;;;;14.30;99.90;;;;;;5114635;28;19931;-63
2023/08/21 03:00:40;;;;;;;;;;;14.20;99.90;;;;;;5113009;28;20276;-62
2023/08/21 03:03:07;;;;;;;;;;;14.10;99.90;;;;;;5096328;28;19985;-64
2023/08/21 03:05:34;;;;;;;;;;;14.20;99.90;;;;;;5096421;28;20007;-63
2023/08/21 03:08:02;;;;;;;;;;;14.20;99.90;;;;;;5113869;28;19928;-64
2023/08/21 03:10:33;;;;;;;;;;;14.20;99.90;;;;;;5114159;28;20472;-63
2023/08/21 03:13:00;;;;;;;;;;;14.20;99.90;;;;;;5112864;28;19978;-62
2023/08/21 03:15:26;;;;;;;;;;;14.10;99.90;;;;;;5095414;28;20440;-63
2023/08/21 03:17:53;;;;;;;;;;;14.10;99.90;;;;;;5095913;28;20004;-63
2023/08/21 03:20:20;;;;;;;;;;;14.10;99.90;;;;;;5113910;28;19924;-64
2023/08/21 03:22:47;;;;;;;;;;;14.00;99.90;;;;;;5113511;28;19928;-63
2023/08/21 03:25:15;;;;;;;;;;;14.00;99.90;;;;;;5113934;28;19988;-63
2023/08/21 03:27:44;;;;;;;;;;;13.90;99.90;;;;;;5095698;28;19931;-62
2023/08/21 03:30:14;;;;;;;;;;;13.90;99.90;;;;;;5095235;28;19967;-64
2023/08/21 03:32:41;;;;;;;;;;;13.90;99.90;;;;;;5114615;28;20264;-64
2023/08/21 03:35:08;;;;;;;;;;;13.80;99.90;;;;;;5113818;28;19923;-64
2023/08/21 03:37:35;;;;;;;;;;;13.80;99.90;;;;;;5113332;28;19931;-63
2023/08/21 03:40:03;;;;;;;;;;;13.80;99.90;;;;;;5095931;28;19924;-64
2023/08/21 03:42:31;;;;;;;;;;;13.80;99.90;;;;;;5095189;28;19928;-63
2023/08/21 03:44:57;;;;;;;;;;;13.80;99.90;;;;;;5113864;28;19924;-63
2023/08/21 03:47:24;;;;;;;;;;;13.80;99.90;;;;;;5113651;28;19932;-65
2023/08/21 03:49:51;;;;;;;;;;;13.70;99.90;;;;;;5094306;28;20353;-62
2023/08/21 03:52:18;;;;;;;;;;;13.70;99.90;;;;;;5095153;28;19931;-62
2023/08/21 03:54:44;;;;;;;;;;;13.70;99.90;;;;;;5095300;28;19932;-62
2023/08/21 03:57:11;;;;;;;;;;;13.70;99.90;;;;;;5112471;28;20272;-62
2023/08/21 03:59:39;;;;;;;;;;;13.70;99.90;;;;;;5113290;28;19932;-62
2023/08/21 04:02:06;;;;;;;;;;;13.70;99.90;;;;;;5113242;28;19961;-62
2023/08/21 04:04:32;;;;;;;;;;;13.60;99.90;;;;;;5112447;28;19924;-63
2023/08/21 04:06:59;;;;;;;;;;;13.60;99.90;;;;;;5113342;28;19924;-62
2023/08/21 04:09:26;;;;;;;;;;;13.60;99.90;;;;;;5113099;28;19930;-61
2023/08/21 04:11:53;;;;;;;;;;;13.60;99.90;;;;;;5112623;28;19923;-61
2023/08/21 04:14:19;;;;;;;;;;;13.60;99.90;;;;;;5112804;28;19930;-62
2023/08/21 04:16:47;;;;;;;;;;;13.60;99.90;;;;;;5094857;28;19928;-63
2023/08/21 04:19:14;;;;;;;;;;;13.60;99.90;;;;;;5111586;28;19931;-62
2023/08/21 04:21:41;;;;;;;;;;;13.50;99.90;;;;;;5112689;28;20311;-65
2023/08/21 04:24:08;;;;;;;;;;;13.50;99.90;;;;;;5094755;28;19973;-62
2023/08/21 04:26:34;;;;;;;;;;;13.50;99.90;;;;;;5093948;28;19934;-63
2023/08/21 04:29:01;;;;;;;;;;;13.50;99.90;;;;;;5112735;28;19969;-63
2023/08/21 04:31:28;;;;;;;;;;;13.50;99.90;;;;;;5112638;28;19927;-62
2023/08/21 04:33:56;;;;;;;;;;;13.50;99.90;;;;;;5112126;28;20352;-62
2023/08/21 04:36:22;;;;;;;;;;;13.50;99.90;;;;;;5112921;28;20003;-62
2023/08/21 04:38:49;;;;;;;;;;;13.60;99.90;;;;;;5093911;28;19989;-63
2023/08/21 04:41:16;;;;;;;;;;;13.60;99.90;;;;;;5093443;28;19924;-62
2023/08/21 04:43:42;;;;;;;;;;;13.60;99.90;;;;;;5112651;28;19928;-62
2023/08/21 04:46:09;;;;;;;;;;;13.60;99.90;;;;;;5111879;28;19931;-62
2023/08/21 04:48:36;;;;;;;;;;;13.70;99.90;;;;;;5112102;28;19972;-63
2023/08/21 04:51:04;;;;;;;;;;;13.70;99.90;;;;;;5094258;28;19947;-63
2023/08/21 04:53:31;;;;;;;;;;;13.80;99.90;;;;;;5111883;28;19932;-63
2023/08/21 04:55:59;;;;;;;;;;;13.80;99.90;;;;;;5112280;28;19932;-60
2023/08/21 04:58:26;;;;;;;;;;;13.80;99.90;;;;;;5092392;28;19931;-63
2023/08/21 05:00:52;;;;;;;;;;;13.80;99.90;;;;;;5111711;28;19938;-63
2023/08/21 05:03:19;;;;;;;;;;;13.90;99.90;;;;;;5101615;28;19932;-64
2023/08/21 05:05:52;;;;;;;;;;;14.30;99.90;;;;;;5108790;28;20358;-63
2023/08/21 05:08:20;;;;;;;;;;;14.40;99.90;;;;;;5091837;28;19923;-64
2023/08/21 05:10:47;;;;;;;;;;;14.50;99.90;;;;;;5090349;28;19930;-63
2023/08/21 05:13:16;;;;;;;;;;;14.60;99.90;;;;;;5121313;28;20547;-63
2023/08/21 05:15:43;;;;;;;;;;;14.70;99.90;;;;;;5108356;28;19928;-63
2023/08/21 05:18:10;;;;;;;;;;;14.70;99.90;;;;;;5092829;28;19977;-64
2023/08/21 05:20:36;;;;;;;;;;;14.80;99.90;;;;;;5106914;28;19927;-63
2023/08/21 05:23:04;;;;;;;;;;;14.90;99.90;;;;;;5111386;28;20341;-64
2023/08/21 05:25:33;;;;;;;;;;;14.90;99.90;;;;;;5094671;28;19968;-63
2023/08/21 05:28:00;;;;;;;;;;;15.00;99.90;;;;;;5114802;28;20301;-63
2023/08/21 05:30:27;;;;;;;;;;;15.10;99.90;;;;;;5094585;28;19949;-63
2023/08/21 05:32:54;;;;;;;;;;;15.20;99.90;;;;;;5114239;28;19943;-63
2023/08/21 05:35:20;;;;;;;;;;;15.30;99.90;;;;;;5113815;28;19928;-63
2023/08/21 05:37:47;;;;;;;;;;;15.40;99.90;;;;;;5095291;28;19938;-64
2023/08/21 05:40:14;;;;;;;;;;;15.50;99.90;;;;;;5095054;28;19928;-63
2023/08/21 05:42:42;;;;;;;;;;;15.60;99.90;;;;;;5114048;28;20814;-63
2023/08/21 05:45:09;;;;;;;;;;;15.70;99.90;;;;;;5114010;28;19924;-63
2023/08/21 05:47:36;;;;;;;;;;;16.20;99.90;;;;;;5096747;28;19936;-63
2023/08/21 05:50:03;;;;;;;;;;;16.40;99.90;;;;;;5112859;28;20298;-63
2023/08/21 05:52:30;;;;;;;;;;;16.50;99.90;;;;;;5113542;28;19977;-64
2023/08/21 05:54:56;;;;;;;;;;;16.70;99.90;;;;;;5113096;28;19928;-63
2023/08/21 05:57:23;;;;;;;;;;;16.80;99.90;;;;;;5112509;28;19931;-63
2023/08/21 05:59:51;;;;;;;;;;;16.90;99.90;;;;;;5112997;28;19931;-63
2023/08/21 06:02:18;;;;;;;;;;;16.90;99.90;;;;;;5112324;28;20398;-63
2023/08/21 06:04:45;;;;;;;;;;;16.90;99.90;;;;;;5113695;28;20375;-64
2023/08/21 06:07:12;;;;;;;;;;;17.00;99.90;;;;;;5112361;28;19930;-64
2023/08/21 06:09:38;;;;;;;;;;;17.10;99.90;;;;;;5113879;28;19931;-64
2023/08/21 06:12:05;;;;;;;;;;;17.20;99.90;;;;;;5110912;28;19969;-64
2023/08/21 06:14:32;;;;;;;;;;;17.50;99.90;;;;;;5115041;28;20379;-64
2023/08/21 06:17:02;;;;;;;;;;;17.70;99.90;;;;;;5110368;28;20283;-64
2023/08/21 06:19:29;;;;;;;;;;;17.80;99.90;;;;;;5114302;28;19927;-62
2023/08/21 06:21:56;;;;;;;;;;;18.00;99.90;;;;;;5096016;28;19927;-64
2023/08/21 06:24:22;;;;;;;;;;;18.30;99.90;;;;;;5115119;28;19930;-63
2023/08/21 06:26:49;;;;;;;;;;;18.70;99.90;;;;;;5095640;28;19927;-64
2023/08/21 06:29:16;;;;;;;;;;;19.10;99.90;;;;;;5097081;28;19972;-64
2023/08/21 06:31:43;;;;;;;;;;;19.50;99.90;;;;;;5093277;28;20387;-64
2023/08/21 06:34:11;;;;;;;;;;;20.00;99.90;;;;;;5113499;28;19957;-64
2023/08/21 06:36:38;;;;;;;;;;;20.40;99.90;;;;;;5112048;28;20071;-63
2023/08/21 06:39:05;;;;;;;;;;;20.80;99.90;;;;;;5096303;28;19932;-64
2023/08/21 06:41:32;;;;;;;;;;;21.30;99.90;;;;;;5113343;28;19927;-65
2023/08/21 06:43:59;;;;;;;;;;;21.90;99.90;;;;;;5114174;28;20303;-65
2023/08/21 06:46:26;;;;;;;;;;;22.40;99.90;;;;;;5113184;28;19935;-64
2023/08/21 06:48:53;;;;;;;;;;;23.00;99.90;;;;;;5112282;28;19967;-64
2023/08/21 06:51:21;;;;;;;;;;;23.40;99.90;;;;;;5096089;28;19936;-64
2023/08/21 06:53:48;;;;;;;;;;;23.90;99.90;;;;;;5112371;28;19931;-64
2023/08/21 06:56:14;;;;;;;;;;;24.40;99.90;;;;;;5113307;28;19927;-64
2023/08/21 06:58:41;;;;;;;;;;;24.60;99.90;;;;;;5113353;28;19928;-64
2023/08/21 07:01:08;;;;;;;;;;;25.10;99.90;;;;;;5095745;28;19973;-65
2023/08/21 07:03:34;;;;;;;;;;;25.50;99.90;;;;;;5095643;28;20368;-65
2023/08/21 07:06:02;;;;;;;;;;;25.70;99.90;;;;;;5114310;28;19937;-65
2023/08/21 07:08:30;;;;;;;;;;;26.10;99.90;;;;;;5093049;28;19971;-63
2023/08/21 07:10:57;;;;;;;;;;;26.30;99.90;;;;;;5114245;28;19931;-65
2023/08/21 07:13:24;;;;;;;;;;;26.50;99.90;;;;;;5112399;28;19961;-65
2023/08/21 07:15:53;;;;;;;;;;;26.70;99.90;;;;;;5095522;28;19931;-66
2023/08/21 07:18:20;;;;;;;;;;;27.00;99.90;;;;;;5094798;28;19930;-65
2023/08/21 07:20:46;;;;;;;;;;;26.90;99.90;;;;;;5096045;28;19931;-64
2023/08/21 07:23:13;;;;;;;;;;;27.40;99.90;;;;;;5094818;28;19927;-65
2023/08/21 07:25:41;;;;;;;;;;;27.50;99.90;;;;;;5096228;28;19950;-65
2023/08/21 07:28:09;;;;;;;;;;;27.60;99.90;;;;;;5093299;28;19981;-66
2023/08/21 07:30:37;;;;;;;;;;;27.90;99.90;;;;;;5094877;28;19931;-64
2023/08/21 07:33:04;;;;;;;;;;;27.60;99.80;;;;;;5095093;28;19923;-65
2023/08/21 07:35:31;;;;;;;;;;;27.80;99.30;;;;;;5093545;28;19932;-65
2023/08/21 07:37:58;;;;;;;;;;;28.30;99.30;;;;;;5113599;28;20276;-66
2023/08/21 07:40:25;;;;;;;;;;;28.20;98.10;;;;;;5093998;28;19979;-67
2023/08/21 07:42:53;;;;;;;;;;;28.70;96.40;;;;;;5111890;28;20334;-66
2023/08/21 07:45:20;;;;;;;;;;;28.80;96.10;;;;;;5110803;28;19931;-68
2023/08/21 07:47:47;;;;;;;;;;;28.70;96.90;;;;;;5111614;28;19927;-66
2023/08/21 07:50:16;;;;;;;;;;;29.10;96.50;;;;;;5108194;28;20387;-67
2023/08/21 07:52:43;;;;;;;;;;;29.30;94.50;;;;;;5113040;28;19973;-67
2023/08/21 07:55:10;;;;;;;;;;;29.40;94.50;;;;;;5110915;28;19935;-66
2023/08/21 07:57:36;;;;;;;;;;;29.60;93.60;;;;;;5093825;28;19988;-67
2023/08/21 08:00:08;;;;;;;;;;;29.90;94.60;;;;;;5111373;28;20388;-67
2023/08/21 08:02:35;;;;;;;;;;;29.80;92.70;;;;;;5112939;28;19931;-67
2023/08/21 08:05:01;;;;;;;;;;;30.00;93.00;;;;;;5111993;28;19924;-67
2023/08/21 08:07:28;;;;;;;;;;;30.40;92.40;;;;;;5111949;28;19930;-67
2023/08/21 08:09:55;;;;;;;;;;;30.30;92.30;;;;;;5092943;28;19923;-66
2023/08/21 08:12:22;;;;;;;;;;;30.30;92.70;;;;;;5094612;28;19946;-67
2023/08/21 08:14:50;;;;;;;;;;;30.50;91.70;;;;;;5111000;28;20277;-72
2023/08/21 08:17:18;;;;;;;;;;;30.30;92.10;;;;;;5093201;28;19928;-76
2023/08/21 08:19:45;;;;;;;;;;;31.00;90.90;;;;;;5125511;27;19934;-77
2023/08/21 08:22:11;;;;;;;;;;;31.10;90.80;;;;;;5110590;28;19928;-77
2023/08/21 08:24:38;;;;;;;;;;;31.30;90.00;;;;;;5093263;28;19936;-76
2023/08/21 08:27:06;;;;;;;;;;;31.60;90.20;;;;;;5093164;28;19973;-76
2023/08/21 08:29:32;;;;;;;;;;;31.70;89.20;;;;;;5093715;28;19977;-76
2023/08/21 08:31:59;;;;;;;;;;;31.80;87.80;;;;;;5090618;28;20379;-75
2023/08/21 08:34:27;;;;;;;;;;;32.10;85.60;;;;;;5110552;28;19927;-75
2023/08/21 08:36:54;;;;;;;;;;;32.30;85.70;;;;;;5092015;28;20409;-75
2023/08/21 08:39:21;;;;;;;;;;;32.30;84.80;;;;;;5111143;28;19927;-76
2023/08/21 08:41:51;;;;;;;;;;;32.20;85.00;;;;;;5093139;28;19985;-77
2023/08/21 08:44:19;;;;;;;;;;;32.20;85.90;;;;;;5112389;28;19931;-76
2023/08/21 08:46:45;;;;;;;;;;;32.60;83.70;;;;;;5093063;28;20280;-76
2023/08/21 08:49:13;;;;;;;;;;;32.30;84.20;;;;;;5125951;27;19924;-76
2023/08/21 08:51:42;;;;;;;;;;;32.70;83.00;;;;;;5109776;28;19928;-76
2023/08/21 08:54:10;;;;;;;;;;;32.60;82.70;;;;;;5110015;28;20387;-76
2023/08/21 08:56:36;;;;;;;;;;;32.60;83.10;;;;;;5110017;28;19928;-77
2023/08/21 08:59:04;;;;;;;;;;;32.80;82.30;;;;;;5092507;28;19928;-76
2023/08/21 09:01:30;;;;;;;;;;;32.90;83.00;;;;;;5091479;28;20288;-77
2023/08/21 09:03:57;;;;;;;;;;;32.60;83.10;;;;;;5093415;28;19928;-76
2023/08/21 09:06:24;;;;;;;;;;;32.30;83.70;;;;;;5108248;28;19927;-77
2023/08/21 09:08:56;;;;;;;;;;;32.40;82.90;;;;;;5110319;28;19932;-77
2023/08/21 09:11:23;;;;;;;;;;;32.00;83.20;;;;;;5110114;28;20272;-77
2023/08/21 09:13:50;;;;;;;;;;;32.40;84.20;;;;;;5092202;28;19930;-77
2023/08/21 09:16:18;;;;;;;;;;;32.90;83.00;;;;;;5094687;28;19947;-77
2023/08/21 09:18:47;;;;;;;;;;;32.70;81.90;;;;;;5092993;28;19927;-77
2023/08/21 09:21:16;;;;;;;;;;;32.90;82.90;;;;;;5094073;28;19931;-76
2023/08/21 09:23:43;;;;;;;;;;;33.00;82.00;;;;;;5124865;28;20307;-75
2023/08/21 09:26:12;;;;;;;;;;;33.30;82.70;;;;;;5093786;28;20053;-75
2023/08/21 09:28:38;;;;;;;;;;;33.60;80.60;;;;;;5091330;28;20376;-76
2023/08/21 09:31:05;;;;;;;;;;;33.50;81.00;;;;;;5112069;28;19924;-76
2023/08/21 09:33:32;;;;;;;;;;;33.50;79.80;;;;;;5092606;28;19930;-75
2023/08/21 09:35:59;;;;;;;;;;;33.50;78.10;;;;;;5093638;28;20295;-76
2023/08/21 09:38:27;;;;;;;;;;;33.40;78.80;;;;;;5109821;28;19923;-75
2023/08/21 09:40:54;;;;;;;;;;;33.50;78.70;;;;;;5110735;28;19924;-76
2023/08/21 09:43:23;;;;;;;;;;;33.60;79.40;;;;;;5109401;28;19930;-76
2023/08/21 09:45:50;;;;;;;;;;;33.10;77.80;;;;;;5093652;28;19928;-77
2023/08/21 09:48:17;;;;;;;;;;;33.30;78.10;;;;;;5110307;28;20040;-76
2023/08/21 09:50:44;;;;;;;;;;;33.70;77.00;;;;;;5092124;28;19923;-76
2023/08/21 09:53:11;;;;;;;;;;;33.50;77.60;;;;;;5110574;28;19934;-76
2023/08/21 09:55:38;;;;;;;;;;;33.70;77.60;;;;;;5091241;28;19982;-76
2023/08/21 09:58:05;;;;;;;;;;;33.30;78.00;;;;;;5111210;28;19930;-77
2023/08/21 10:00:36;;;;;;;;;;;33.50;78.40;;;;;;5108313;28;20326;-77
2023/08/21 10:03:03;;;;;;;;;;;33.30;77.70;;;;;;5092481;28;19931;-77
2023/08/21 10:05:31;;;;;;;;;;;33.60;77.50;;;;;;5091586;28;20010;-76
2023/08/21 10:08:00;;;;;;;;;;;33.40;78.50;;;;;;5091792;28;19973;-76
2023/08/21 10:10:27;;;;;;;;;;;34.20;79.20;;;;;;5107789;28;19939;-76
2023/08/21 10:12:53;;;;;;;;;;;34.50;77.60;;;;;;5112363;28;20376;-76
2023/08/21 10:15:20;;;;;;;;;;;34.60;77.50;;;;;;5113283;28;19924;-76
2023/08/21 10:17:48;;;;;;;;;;;34.30;77.20;;;;;;5096978;28;19924;-76
2023/08/21 10:20:21;;;;;;;;;;;34.10;77.00;;;;;;5113598;28;19924;-76
2023/08/21 10:22:49;;;;;;;;;;;34.30;76.00;;;;;;5115620;28;19930;-76
2023/08/21 10:25:17;;;;;;;;;;;34.50;75.30;;;;;;5094243;28;19927;-76
2023/08/21 10:27:44;;;;;;;;;;;34.00;76.30;;;;;;5113418;28;19928;-76
2023/08/21 10:30:14;;;;;;;;;;;34.10;75.20;;;;;;5110963;28;19924;-77
2023/08/21 10:32:45;;;;;;;;;;;34.30;75.70;;;;;;5091037;28;19924;-76
2023/08/21 10:35:16;;;;;;;;;;;34.10;75.60;;;;;;5113032;28;19973;-76
2023/08/21 10:38:02;;;;;;;;;;;34.20;75.50;;;;;;5095257;28;20006;-76
2023/08/21 10:40:29;;;;;;;;;;;34.00;76.80;;;;;;5113838;28;19928;-75
2023/08/21 10:42:55;;;;;;;;;;;34.60;75.90;;;;;;5095890;28;19923;-75
2023/08/21 10:45:22;;;;;;;;;;;34.30;74.30;;;;;;5095637;28;20294;-75
2023/08/21 10:47:50;;;;;;;;;;;33.80;74.80;;;;;;5113405;28;19931;-76
2023/08/21 10:50:19;;;;;;;;;;;33.70;75.30;;;;;;5095786;28;20015;-75
2023/08/21 10:52:46;;;;;;;;;;;33.30;76.10;;;;;;5093349;28;20011;-76
2023/08/21 10:55:13;;;;;;;;;;;33.60;76.60;;;;;;5096200;28;19924;-75
2023/08/21 10:57:41;;;;;;;;;;;33.70;76.90;;;;;;5094875;28;19924;-75
2023/08/21 11:00:09;;;;;;;;;;;33.50;75.80;;;;;;5095656;28;19924;-76
2023/08/21 11:02:36;;;;;;;;;;;34.20;75.50;;;;;;5111582;28;19924;-76
2023/08/21 11:05:03;;;;;;;;;;;34.20;73.60;;;;;;5113337;28;20061;-76
2023/08/21 11:07:31;;;;;;;;;;;34.40;74.70;;;;;;5093437;28;20436;-76
2023/08/21 11:09:58;;;;;;;;;;;34.60;73.90;;;;;;5094300;28;19927;-76
2023/08/21 11:12:25;;;;;;;;;;;34.40;73.90;;;;;;5126193;27;19993;-76
2023/08/21 11:14:52;;;;;;;;;;;34.80;73.90;;;;;;5093576;28;19924;-76
2023/08/21 11:17:19;;;;;;;;;;;34.80;74.10;;;;;;5093782;28;19934;-76
2023/08/21 11:19:48;;;;;;;;;;;34.70;73.80;;;;;;5093495;28;19967;-76
2023/08/21 11:22:14;;;;;;;;;;;34.70;74.50;;;;;;5094906;28;20018;-76
2023/08/21 11:24:44;;;;;;;;;;;34.30;75.40;;;;;;5095037;28;19928;-76
2023/08/21 11:27:12;;;;;;;;;;;34.10;75.60;;;;;;5095417;28;19923;-76
2023/08/21 11:29:39;;;;;;;;;;;33.80;74.70;;;;;;5111673;28;19932;-75
2023/08/21 11:32:13;;;;;;;;;;;33.50;74.70;;;;;;5113836;28;19931;-75
2023/08/21 11:34:40;;;;;;;;;;;34.30;74.70;;;;;;5093731;28;19923;-75
2023/08/21 11:37:07;;;;;;;;;;;34.40;74.10;;;;;;5095726;28;19969;-74
2023/08/21 11:39:43;;;;;;;;;;;34.00;75.30;;;;;;5092525;28;19976;-75
2023/08/21 11:42:11;;;;;;;;;;;34.00;75.90;;;;;;5094577;28;19928;-75
2023/08/21 11:44:41;;;;;;;;;;;34.20;75.40;;;;;;5112230;28;19932;-75
2023/08/21 11:47:08;;;;;;;;;;;34.50;74.80;;;;;;5095120;28;19928;-74
2023/08/21 11:49:37;;;;;;;;;;;34.50;74.40;;;;;;5111247;28;20307;-74
2023/08/21 11:52:04;;;;;;;;;;;33.70;75.00;;;;;;5112479;28;19934;-73
2023/08/21 11:54:33;;;;;;;;;;;33.70;76.00;;;;;;5095040;28;19924;-74
2023/08/21 11:57:01;;;;;;;;;;;34.20;76.00;;;;;;5092674;28;19924;-74
2023/08/21 11:59:30;;;;;;;;;;;34.20;74.30;;;;;;5110867;28;19953;-75
2023/08/21 12:01:57;;;;;;;;;;;34.60;75.30;;;;;;5112276;28;19932;-74
2023/08/21 12:04:24;;;;;;;;;;;34.20;74.40;;;;;;5112610;28;19954;-74
2023/08/21 12:06:51;;;;;;;;;;;34.40;75.60;;;;;;5108057;28;19927;-75
2023/08/21 12:09:19;;;;;;;;;;;34.90;75.00;;;;;;5094249;28;20268;-74
2023/08/21 12:11:45;;;;;;;;;;;34.80;74.50;;;;;;5110026;28;20330;-75
2023/08/21 12:14:13;;;;;;;;;;;35.00;73.80;;;;;;5094751;28;19931;-74
2023/08/21 12:16:40;;;;;;;;;;;34.30;74.70;;;;;;5090161;28;20428;-75
2023/08/21 12:19:09;;;;;;;;;;;32.80;74.70;;;;;;5112854;28;19923;-75
2023/08/21 12:21:37;;;;;;;;;;;32.20;76.30;;;;;;5110375;28;19931;-75
2023/08/21 12:24:04;;;;;;;;;;;32.50;75.40;;;;;;5112434;28;19923;-75
2023/08/21 12:26:31;;;;;;;;;;;33.00;76.50;;;;;;5093878;28;19924;-75
2023/08/21 12:28:58;;;;;;;;;;;33.50;74.40;;;;;;5110906;28;19947;-74
2023/08/21 12:31:26;;;;;;;;;;;33.80;75.10;;;;;;5092333;28;19946;-75
2023/08/21 12:33:53;;;;;;;;;;;34.10;74.30;;;;;;5114305;28;19924;-74
2023/08/21 12:36:20;;;;;;;;;;;34.40;74.30;;;;;;5112883;28;19932;-73
2023/08/21 12:38:46;;;;;;;;;;;34.80;74.50;;;;;;5093669;28;19946;-74
2023/08/21 12:41:13;;;;;;;;;;;35.00;73.10;;;;;;5092242;28;19931;-73
2023/08/21 12:43:40;;;;;;;;;;;35.10;73.70;;;;;;5112408;28;20352;-74
2023/08/21 12:46:07;;;;;;;;;;;35.40;73.80;;;;;;5113062;28;19940;-74
2023/08/21 12:48:35;;;;;;;;;;;35.90;73.90;;;;;;5093640;28;19931;-75
2023/08/21 12:51:02;;;;;;;;;;;35.80;72.70;;;;;;5094467;28;19930;-74
2023/08/21 12:53:29;;;;;;;;;;;35.70;73.60;;;;;;5111635;28;20278;-74
2023/08/21 12:55:55;;;;;;;;;;;35.60;72.80;;;;;;5090033;28;19923;-74
2023/08/21 12:58:22;;;;;;;;;;;36.00;72.40;;;;;;5107989;28;20432;-74
2023/08/21 13:00:49;;;;;;;;;;;36.20;72.30;;;;;;5111496;28;19924;-75
2023/08/21 13:03:15;;;;;;;;;;;36.50;72.20;;;;;;5108687;28;19923;-74
2023/08/21 13:05:44;;;;;;;;;;;36.50;71.50;;;;;;5084330;28;19962;-75
2023/08/21 13:08:10;;;;;;;;;;;35.70;71.70;;;;;;5109545;28;19928;-75
2023/08/21 13:10:37;;;;;;;;;;;35.90;71.00;;;;;;5110527;28;19923;-74
2023/08/21 13:13:04;;;;;;;;;;;36.10;71.00;;;;;;5111445;28;20383;-75
2023/08/21 13:15:31;;;;;;;;;;;36.30;70.00;;;;;;5107848;28;19924;-73
2023/08/21 13:17:58;;;;;;;;;;;36.00;69.00;;;;;;5112448;28;19923;-74
2023/08/21 13:20:24;;;;;;;;;;;35.70;69.00;;;;;;5092504;28;19928;-74
2023/08/21 13:22:53;;;;;;;;;;;35.80;69.70;;;;;;5094662;28;19924;-74
2023/08/21 13:25:20;;;;;;;;;;;36.00;69.40;;;;;;5110879;28;19957;-74
2023/08/21 13:27:47;;;;;;;;;;;36.00;70.30;;;;;;5092832;28;19928;-75
2023/08/21 13:30:14;;;;;;;;;;;34.90;70.00;;;;;;5093545;28;19975;-75
2023/08/21 13:32:41;;;;;;;;;;;34.50;71.10;;;;;;5092119;28;20081;-74
2023/08/21 13:35:08;;;;;;;;;;;34.20;72.50;;;;;;5091509;28;19955;-75
2023/08/21 13:37:35;;;;;;;;;;;34.60;72.30;;;;;;5110534;28;19931;-75
2023/08/21 13:40:09;;;;;;;;;;;35.10;71.40;;;;;;5108820;28;19928;-76
2023/08/21 13:42:37;;;;;;;;;;;35.50;70.90;;;;;;5092472;28;20007;-75
2023/08/21 13:45:05;;;;;;;;;;;36.00;68.80;;;;;;5095621;28;20268;-75
2023/08/21 13:47:31;;;;;;;;;;;36.20;68.00;;;;;;5114108;28;19930;-75
2023/08/21 13:49:58;;;;;;;;;;;36.00;68.00;;;;;;5115166;28;19931;-76
2023/08/21 13:52:25;;;;;;;;;;;36.30;69.60;;;;;;5114671;28;20007;-75
2023/08/21 13:54:52;;;;;;;;;;;36.20;69.10;;;;;;5096969;28;19996;-76
2023/08/21 13:57:20;;;;;;;;;;;36.40;69.60;;;;;;5113987;28;19927;-76
2023/08/21 13:59:47;;;;;;;;;;;37.00;68.60;;;;;;5115464;28;19977;-76
2023/08/21 14:02:13;;;;;;;;;;;36.80;68.00;;;;;;5113271;28;19931;-75
2023/08/21 14:04:40;;;;;;;;;;;36.50;67.80;;;;;;5097500;28;19928;-75
2023/08/21 14:07:07;;;;;;;;;;;36.60;66.90;;;;;;5113374;28;20272;-76
2023/08/21 14:09:33;;;;;;;;;;;36.80;66.90;;;;;;5096024;28;20383;-75
2023/08/21 14:12:00;;;;;;;;;;;36.40;66.00;;;;;;5113280;28;19928;-75
2023/08/21 14:14:28;;;;;;;;;;;36.20;66.80;;;;;;5096249;28;19930;-74
2023/08/21 14:16:55;;;;;;;;;;;36.10;67.50;;;;;;5096635;28;19924;-75